sensor_id;sensor_type;location;lat;lon;timestamp;P1;durP1;ratioP1;P2;durP2;ratioP2
6537;SDS011;3302;52.508;13.454;2023-04-16T00:00:47;13.90;;;12.40;;
6537;SDS011;3302;52.508;13.454;2023-04-16T00:03:13;13.13;;;11.83;;
6537;SDS011;3302;52.508;13.454;2023-04-16T00:05:39;14.17;;;12.67;;
6537;SDS011;3302;52.508;13.454;2023-04-16T00:08:05;13.07;;;11.73;;
6537;SDS011;3302;52.508;13.454;2023-04-16T00:10:32;14.10;;;12.70;;
6537;SDS011;3302;52.508;13.454;2023-04-16T00:12:59;12.23;;;10.97;;
6537;SDS011;3302;52.508;13.454;2023-04-16T00:15:24;13.53;;;12.23;;
6537;SDS011;3302;52.508;13.454;2023-04-16T00:17:50;14.50;;;12.87;;
6537;SDS011;3302;52.508;13.454;2023-04-16T00:20:16;14.37;;;12.87;;
6537;SDS011;3302;52.508;13.454;2023-04-16T00:22:42;14.27;;;12.77;;
6537;SDS011;3302;52.508;13.454;2023-04-16T00:25:08;13.97;;;12.47;;
6537;SDS011;3302;52.508;13.454;2023-04-16T00:27:33;13.87;;;12.43;;
6537;SDS011;3302;52.508;13.454;2023-04-16T00:29:59;14.20;;;12.80;;
6537;SDS011;3302;52.508;13.454;2023-04-16T00:32:25;14.57;;;13.07;;
6537;SDS011;3302;52.508;13.454;2023-04-16T00:34:51;14.97;;;13.33;;
6537;SDS011;3302;52.508;13.454;2023-04-16T00:37:17;15.47;;;13.87;;
6537;SDS011;3302;52.508;13.454;2023-04-16T00:39:42;14.63;;;13.13;;
6537;SDS011;3302;52.508;13.454;2023-04-16T00:42:08;15.13;;;13.60;;
6537;SDS011;3302;52.508;13.454;2023-04-16T00:44:34;14.90;;;13.30;;
6537;SDS011;3302;52.508;13.454;2023-04-16T00:47:00;14.17;;;12.67;;
6537;SDS011;3302;52.508;13.454;2023-04-16T00:49:27;14.07;;;12.67;;
6537;SDS011;3302;52.508;13.454;2023-04-16T00:51:53;15.27;;;13.67;;
6537;SDS011;3302;52.508;13.454;2023-04-16T00:54:19;14.07;;;12.67;;
6537;SDS011;3302;52.508;13.454;2023-04-16T00:56:46;16.03;;;14.23;;
6537;SDS011;3302;52.508;13.454;2023-04-16T00:59:11;15.70;;;13.83;;
6537;SDS011;3302;52.508;13.454;2023-04-16T01:01:37;14.70;;;13.27;;
6537;SDS011;3302;52.508;13.454;2023-04-16T01:04:03;15.70;;;14.10;;
6537;SDS011;3302;52.508;13.454;2023-04-16T01:06:31;14.60;;;13.17;;
6537;SDS011;3302;52.508;13.454;2023-04-16T01:08:57;17.57;;;14.93;;
6537;SDS011;3302;52.508;13.454;2023-04-16T01:11:22;15.37;;;13.87;;
6537;SDS011;3302;52.508;13.454;2023-04-16T01:13:49;15.90;;;14.27;;
6537;SDS011;3302;52.508;13.454;2023-04-16T01:16:14;15.80;;;14.30;;
6537;SDS011;3302;52.508;13.454;2023-04-16T01:18:40;15.90;;;14.27;;
6537;SDS011;3302;52.508;13.454;2023-04-16T01:21:06;15.97;;;14.27;;
6537;SDS011;3302;52.508;13.454;2023-04-16T01:23:32;16.90;;;15.20;;
6537;SDS011;3302;52.508;13.454;2023-04-16T01:25:57;16.83;;;15.03;;
6537;SDS011;3302;52.508;13.454;2023-04-16T01:28:23;16.10;;;14.53;;
6537;SDS011;3302;52.508;13.454;2023-04-16T01:30:49;16.73;;;14.90;;
6537;SDS011;3302;52.508;13.454;2023-04-16T01:33:16;16.77;;;15.07;;
6537;SDS011;3302;52.508;13.454;2023-04-16T01:35:42;16.20;;;14.60;;
6537;SDS011;3302;52.508;13.454;2023-04-16T01:38:08;16.97;;;15.23;;
6537;SDS011;3302;52.508;13.454;2023-04-16T01:40:35;16.53;;;14.80;;
6537;SDS011;3302;52.508;13.454;2023-04-16T01:43:01;18.00;;;15.53;;
6537;SDS011;3302;52.508;13.454;2023-04-16T01:45:28;16.10;;;14.50;;
6537;SDS011;3302;52.508;13.454;2023-04-16T01:47:55;16.60;;;14.80;;
6537;SDS011;3302;52.508;13.454;2023-04-16T01:50:21;17.23;;;15.43;;
6537;SDS011;3302;52.508;13.454;2023-04-16T01:52:47;17.87;;;15.23;;
6537;SDS011;3302;52.508;13.454;2023-04-16T01:55:13;16.83;;;15.13;;
6537;SDS011;3302;52.508;13.454;2023-04-16T01:57:39;15.87;;;14.27;;
6537;SDS011;3302;52.508;13.454;2023-04-16T02:00:05;16.43;;;14.73;;
6537;SDS011;3302;52.508;13.454;2023-04-16T02:02:33;15.77;;;14.17;;
6537;SDS011;3302;52.508;13.454;2023-04-16T02:05:00;16.33;;;14.57;;
6537;SDS011;3302;52.508;13.454;2023-04-16T02:07:26;16.33;;;14.57;;
6537;SDS011;3302;52.508;13.454;2023-04-16T02:09:52;17.00;;;15.30;;
6537;SDS011;3302;52.508;13.454;2023-04-16T02:12:18;16.03;;;14.43;;
6537;SDS011;3302;52.508;13.454;2023-04-16T02:14:44;16.23;;;14.03;;
6537;SDS011;3302;52.508;13.454;2023-04-16T02:17:10;16.20;;;14.60;;
6537;SDS011;3302;52.508;13.454;2023-04-16T02:19:36;15.13;;;13.63;;
6537;SDS011;3302;52.508;13.454;2023-04-16T02:22:02;15.17;;;13.57;;
6537;SDS011;3302;52.508;13.454;2023-04-16T02:24:28;14.97;;;13.53;;
6537;SDS011;3302;52.508;13.454;2023-04-16T02:26:54;15.10;;;13.50;;
6537;SDS011;3302;52.508;13.454;2023-04-16T02:29:21;16.20;;;14.50;;
6537;SDS011;3302;52.508;13.454;2023-04-16T02:31:47;15.70;;;14.07;;
6537;SDS011;3302;52.508;13.454;2023-04-16T02:34:13;16.70;;;14.63;;
6537;SDS011;3302;52.508;13.454;2023-04-16T02:36:39;16.03;;;14.43;;
6537;SDS011;3302;52.508;13.454;2023-04-16T02:39:05;16.37;;;14.73;;
6537;SDS011;3302;52.508;13.454;2023-04-16T02:41:31;16.17;;;14.43;;
6537;SDS011;3302;52.508;13.454;2023-04-16T02:43:57;17.20;;;15.40;;
6537;SDS011;3302;52.508;13.454;2023-04-16T02:46:23;17.30;;;15.50;;
6537;SDS011;3302;52.508;13.454;2023-04-16T02:48:49;15.67;;;13.97;;
6537;SDS011;3302;52.508;13.454;2023-04-16T02:51:14;15.93;;;14.33;;
6537;SDS011;3302;52.508;13.454;2023-04-16T02:53:40;17.27;;;15.47;;
6537;SDS011;3302;52.508;13.454;2023-04-16T02:56:10;16.30;;;14.57;;
6537;SDS011;3302;52.508;13.454;2023-04-16T02:58:36;17.67;;;14.87;;
6537;SDS011;3302;52.508;13.454;2023-04-16T03:01:02;17.07;;;15.27;;
6537;SDS011;3302;52.508;13.454;2023-04-16T03:03:29;17.23;;;15.53;;
6537;SDS011;3302;52.508;13.454;2023-04-16T03:05:54;17.87;;;15.97;;
6537;SDS011;3302;52.508;13.454;2023-04-16T03:08:20;18.47;;;16.47;;
6537;SDS011;3302;52.508;13.454;2023-04-16T03:10:46;20.43;;;17.43;;
6537;SDS011;3302;52.508;13.454;2023-04-16T03:13:11;18.80;;;16.57;;
6537;SDS011;3302;52.508;13.454;2023-04-16T03:15:38;18.87;;;16.43;;
6537;SDS011;3302;52.508;13.454;2023-04-16T03:18:04;18.60;;;16.67;;
6537;SDS011;3302;52.508;13.454;2023-04-16T03:20:30;21.43;;;17.97;;
6537;SDS011;3302;52.508;13.454;2023-04-16T03:22:56;20.83;;;17.83;;
6537;SDS011;3302;52.508;13.454;2023-04-16T03:25:21;22.37;;;17.57;;
6537;SDS011;3302;52.508;13.454;2023-04-16T03:27:47;20.70;;;18.13;;
6537;SDS011;3302;52.508;13.454;2023-04-16T03:30:13;20.73;;;18.47;;
6537;SDS011;3302;52.508;13.454;2023-04-16T03:32:40;21.17;;;17.83;;
6537;SDS011;3302;52.508;13.454;2023-04-16T03:35:07;21.13;;;18.07;;
6537;SDS011;3302;52.508;13.454;2023-04-16T03:37:33;22.17;;;18.33;;
6537;SDS011;3302;52.508;13.454;2023-04-16T03:39:59;20.93;;;17.83;;
6537;SDS011;3302;52.508;13.454;2023-04-16T03:42:25;26.03;;;19.77;;
6537;SDS011;3302;52.508;13.454;2023-04-16T03:44:51;21.93;;;19.27;;
6537;SDS011;3302;52.508;13.454;2023-04-16T03:47:18;24.17;;;19.10;;
6537;SDS011;3302;52.508;13.454;2023-04-16T03:49:44;21.83;;;19.20;;
6537;SDS011;3302;52.508;13.454;2023-04-16T03:52:10;20.47;;;18.17;;
6537;SDS011;3302;52.508;13.454;2023-04-16T03:54:36;23.70;;;18.03;;
6537;SDS011;3302;52.508;13.454;2023-04-16T03:57:02;24.33;;;17.80;;
6537;SDS011;3302;52.508;13.454;2023-04-16T03:59:27;22.53;;;17.70;;
6537;SDS011;3302;52.508;13.454;2023-04-16T04:01:53;23.17;;;18.60;;
6537;SDS011;3302;52.508;13.454;2023-04-16T04:04:19;26.93;;;19.37;;
6537;SDS011;3302;52.508;13.454;2023-04-16T04:06:45;22.57;;;17.53;;
6537;SDS011;3302;52.508;13.454;2023-04-16T04:09:11;22.37;;;17.60;;
6537;SDS011;3302;52.508;13.454;2023-04-16T04:11:37;23.07;;;18.97;;
6537;SDS011;3302;52.508;13.454;2023-04-16T04:14:03;21.63;;;17.57;;
6537;SDS011;3302;52.508;13.454;2023-04-16T04:16:30;21.17;;;17.00;;
6537;SDS011;3302;52.508;13.454;2023-04-16T04:18:56;21.30;;;17.23;;
6537;SDS011;3302;52.508;13.454;2023-04-16T04:21:22;23.87;;;18.27;;
6537;SDS011;3302;52.508;13.454;2023-04-16T04:23:48;20.93;;;17.67;;
6537;SDS011;3302;52.508;13.454;2023-04-16T04:26:13;23.63;;;18.13;;
6537;SDS011;3302;52.508;13.454;2023-04-16T04:28:39;23.63;;;17.63;;
6537;SDS011;3302;52.508;13.454;2023-04-16T04:31:05;23.57;;;18.10;;
6537;SDS011;3302;52.508;13.454;2023-04-16T04:33:31;24.40;;;18.57;;
6537;SDS011;3302;52.508;13.454;2023-04-16T04:35:56;22.43;;;18.33;;
6537;SDS011;3302;52.508;13.454;2023-04-16T04:38:22;23.20;;;18.30;;
6537;SDS011;3302;52.508;13.454;2023-04-16T04:40:52;21.87;;;18.20;;
6537;SDS011;3302;52.508;13.454;2023-04-16T04:43:21;21.00;;;17.53;;
6537;SDS011;3302;52.508;13.454;2023-04-16T04:45:47;24.77;;;18.37;;
6537;SDS011;3302;52.508;13.454;2023-04-16T04:48:13;22.83;;;17.77;;
6537;SDS011;3302;52.508;13.454;2023-04-16T04:50:40;21.57;;;16.77;;
6537;SDS011;3302;52.508;13.454;2023-04-16T04:53:06;19.90;;;17.30;;
6537;SDS011;3302;52.508;13.454;2023-04-16T04:55:36;23.17;;;18.43;;
6537;SDS011;3302;52.508;13.454;2023-04-16T04:58:05;23.83;;;18.50;;
6537;SDS011;3302;52.508;13.454;2023-04-16T05:00:32;26.80;;;18.47;;
6537;SDS011;3302;52.508;13.454;2023-04-16T05:03:02;25.20;;;18.60;;
6537;SDS011;3302;52.508;13.454;2023-04-16T05:05:29;21.60;;;18.20;;
6537;SDS011;3302;52.508;13.454;2023-04-16T05:07:56;21.97;;;18.17;;
6537;SDS011;3302;52.508;13.454;2023-04-16T05:10:21;26.40;;;18.37;;
6537;SDS011;3302;52.508;13.454;2023-04-16T05:12:47;22.90;;;18.13;;
6537;SDS011;3302;52.508;13.454;2023-04-16T05:15:13;23.63;;;17.87;;
6537;SDS011;3302;52.508;13.454;2023-04-16T05:17:39;25.10;;;18.23;;
6537;SDS011;3302;52.508;13.454;2023-04-16T05:20:06;22.40;;;18.23;;
6537;SDS011;3302;52.508;13.454;2023-04-16T05:22:35;23.23;;;17.83;;
6537;SDS011;3302;52.508;13.454;2023-04-16T05:25:01;24.20;;;16.93;;
6537;SDS011;3302;52.508;13.454;2023-04-16T05:27:27;23.40;;;18.00;;
6537;SDS011;3302;52.508;13.454;2023-04-16T05:29:52;24.00;;;18.03;;
6537;SDS011;3302;52.508;13.454;2023-04-16T05:32:18;22.03;;;16.97;;
6537;SDS011;3302;52.508;13.454;2023-04-16T05:34:44;22.93;;;17.90;;
6537;SDS011;3302;52.508;13.454;2023-04-16T05:37:10;23.90;;;17.70;;
6537;SDS011;3302;52.508;13.454;2023-04-16T05:39:35;23.43;;;17.77;;
6537;SDS011;3302;52.508;13.454;2023-04-16T05:42:01;25.63;;;18.63;;
6537;SDS011;3302;52.508;13.454;2023-04-16T05:44:27;23.93;;;17.53;;
6537;SDS011;3302;52.508;13.454;2023-04-16T05:46:53;22.43;;;17.13;;
6537;SDS011;3302;52.508;13.454;2023-04-16T05:49:18;24.17;;;17.87;;
6537;SDS011;3302;52.508;13.454;2023-04-16T05:51:45;24.43;;;17.83;;
6537;SDS011;3302;52.508;13.454;2023-04-16T05:54:11;22.23;;;16.50;;
6537;SDS011;3302;52.508;13.454;2023-04-16T05:56:37;23.00;;;17.63;;
6537;SDS011;3302;52.508;13.454;2023-04-16T05:59:02;23.00;;;17.90;;
6537;SDS011;3302;52.508;13.454;2023-04-16T06:01:28;24.77;;;17.27;;
6537;SDS011;3302;52.508;13.454;2023-04-16T06:03:54;23.50;;;16.87;;
6537;SDS011;3302;52.508;13.454;2023-04-16T06:06:20;23.23;;;16.83;;
6537;SDS011;3302;52.508;13.454;2023-04-16T06:08:45;21.00;;;16.50;;
6537;SDS011;3302;52.508;13.454;2023-04-16T06:11:11;22.30;;;15.90;;
6537;SDS011;3302;52.508;13.454;2023-04-16T06:13:37;21.70;;;16.80;;
6537;SDS011;3302;52.508;13.454;2023-04-16T06:16:03;22.67;;;16.40;;
6537;SDS011;3302;52.508;13.454;2023-04-16T06:18:29;20.60;;;16.63;;
6537;SDS011;3302;52.508;13.454;2023-04-16T06:20:55;20.40;;;16.63;;
6537;SDS011;3302;52.508;13.454;2023-04-16T06:23:22;21.33;;;15.30;;
6537;SDS011;3302;52.508;13.454;2023-04-16T06:25:48;22.43;;;16.63;;
6537;SDS011;3302;52.508;13.454;2023-04-16T06:28:14;19.37;;;15.90;;
6537;SDS011;3302;52.508;13.454;2023-04-16T06:30:40;20.93;;;16.73;;
6537;SDS011;3302;52.508;13.454;2023-04-16T06:33:06;21.60;;;16.87;;
6537;SDS011;3302;52.508;13.454;2023-04-16T06:35:31;23.13;;;16.50;;
6537;SDS011;3302;52.508;13.454;2023-04-16T06:37:57;23.03;;;17.43;;
6537;SDS011;3302;52.508;13.454;2023-04-16T06:40:23;22.37;;;15.97;;
6537;SDS011;3302;52.508;13.454;2023-04-16T06:42:49;21.87;;;16.10;;
6537;SDS011;3302;52.508;13.454;2023-04-16T06:45:14;24.40;;;17.43;;
6537;SDS011;3302;52.508;13.454;2023-04-16T06:47:40;22.80;;;16.30;;
6537;SDS011;3302;52.508;13.454;2023-04-16T06:50:06;21.53;;;16.63;;
6537;SDS011;3302;52.508;13.454;2023-04-16T06:52:32;20.50;;;15.27;;
6537;SDS011;3302;52.508;13.454;2023-04-16T06:54:58;19.87;;;16.00;;
6537;SDS011;3302;52.508;13.454;2023-04-16T06:57:23;19.57;;;15.60;;
6537;SDS011;3302;52.508;13.454;2023-04-16T06:59:49;20.10;;;14.97;;
6537;SDS011;3302;52.508;13.454;2023-04-16T07:02:15;22.57;;;15.93;;
6537;SDS011;3302;52.508;13.454;2023-04-16T07:04:41;20.60;;;16.50;;
6537;SDS011;3302;52.508;13.454;2023-04-16T07:07:07;22.40;;;16.37;;
6537;SDS011;3302;52.508;13.454;2023-04-16T07:09:33;20.20;;;14.77;;
6537;SDS011;3302;52.508;13.454;2023-04-16T07:11:58;20.83;;;16.07;;
6537;SDS011;3302;52.508;13.454;2023-04-16T07:14:24;18.20;;;15.00;;
6537;SDS011;3302;52.508;13.454;2023-04-16T07:16:50;20.83;;;14.97;;
6537;SDS011;3302;52.508;13.454;2023-04-16T07:19:16;20.47;;;14.97;;
6537;SDS011;3302;52.508;13.454;2023-04-16T07:21:42;20.07;;;14.57;;
6537;SDS011;3302;52.508;13.454;2023-04-16T07:24:11;18.83;;;14.93;;
6537;SDS011;3302;52.508;13.454;2023-04-16T07:26:36;21.10;;;15.17;;
6537;SDS011;3302;52.508;13.454;2023-04-16T07:29:02;18.97;;;15.60;;
6537;SDS011;3302;52.508;13.454;2023-04-16T07:31:28;23.53;;;15.77;;
6537;SDS011;3302;52.508;13.454;2023-04-16T07:33:54;20.30;;;15.67;;
6537;SDS011;3302;52.508;13.454;2023-04-16T07:36:19;22.87;;;17.43;;
6537;SDS011;3302;52.508;13.454;2023-04-16T07:38:45;20.20;;;15.17;;
6537;SDS011;3302;52.508;13.454;2023-04-16T07:41:11;21.57;;;15.30;;
6537;SDS011;3302;52.508;13.454;2023-04-16T07:43:37;20.83;;;15.60;;
6537;SDS011;3302;52.508;13.454;2023-04-16T07:46:03;20.80;;;15.40;;
6537;SDS011;3302;52.508;13.454;2023-04-16T07:48:29;19.13;;;15.37;;
6537;SDS011;3302;52.508;13.454;2023-04-16T07:50:55;20.30;;;15.80;;
6537;SDS011;3302;52.508;13.454;2023-04-16T07:53:21;17.77;;;14.13;;
6537;SDS011;3302;52.508;13.454;2023-04-16T07:55:46;20.10;;;15.00;;
6537;SDS011;3302;52.508;13.454;2023-04-16T07:58:12;18.73;;;14.33;;
6537;SDS011;3302;52.508;13.454;2023-04-16T08:00:38;17.47;;;13.53;;
6537;SDS011;3302;52.508;13.454;2023-04-16T08:03:04;19.97;;;14.67;;
6537;SDS011;3302;52.508;13.454;2023-04-16T08:05:30;19.30;;;14.93;;
6537;SDS011;3302;52.508;13.454;2023-04-16T08:07:55;19.80;;;14.53;;
6537;SDS011;3302;52.508;13.454;2023-04-16T08:10:21;19.63;;;14.47;;
6537;SDS011;3302;52.508;13.454;2023-04-16T08:12:47;18.10;;;14.30;;
6537;SDS011;3302;52.508;13.454;2023-04-16T08:15:13;17.20;;;13.47;;
6537;SDS011;3302;52.508;13.454;2023-04-16T08:17:38;16.73;;;13.50;;
6537;SDS011;3302;52.508;13.454;2023-04-16T08:20:04;19.87;;;14.10;;
6537;SDS011;3302;52.508;13.454;2023-04-16T08:22:31;18.73;;;14.30;;
6537;SDS011;3302;52.508;13.454;2023-04-16T08:24:57;19.70;;;14.83;;
6537;SDS011;3302;52.508;13.454;2023-04-16T08:27:23;17.63;;;13.43;;
6537;SDS011;3302;52.508;13.454;2023-04-16T08:29:49;19.80;;;14.03;;
6537;SDS011;3302;52.508;13.454;2023-04-16T08:32:15;20.57;;;14.77;;
6537;SDS011;3302;52.508;13.454;2023-04-16T08:34:41;20.03;;;14.70;;
6537;SDS011;3302;52.508;13.454;2023-04-16T08:37:07;17.90;;;13.47;;
6537;SDS011;3302;52.508;13.454;2023-04-16T08:39:34;16.87;;;13.70;;
6537;SDS011;3302;52.508;13.454;2023-04-16T08:42:00;17.90;;;14.10;;
6537;SDS011;3302;52.508;13.454;2023-04-16T08:44:33;18.83;;;14.57;;
6537;SDS011;3302;52.508;13.454;2023-04-16T08:47:01;16.83;;;13.47;;
6537;SDS011;3302;52.508;13.454;2023-04-16T08:49:27;16.83;;;13.30;;
6537;SDS011;3302;52.508;13.454;2023-04-16T08:51:54;19.40;;;14.03;;
6537;SDS011;3302;52.508;13.454;2023-04-16T08:54:35;17.27;;;14.10;;
6537;SDS011;3302;52.508;13.454;2023-04-16T08:57:09;18.60;;;14.53;;
6537;SDS011;3302;52.508;13.454;2023-04-16T08:59:36;19.63;;;14.20;;
6537;SDS011;3302;52.508;13.454;2023-04-16T09:02:03;21.40;;;15.23;;
6537;SDS011;3302;52.508;13.454;2023-04-16T09:04:30;19.87;;;15.17;;
6537;SDS011;3302;52.508;13.454;2023-04-16T09:06:57;18.37;;;15.33;;
6537;SDS011;3302;52.508;13.454;2023-04-16T09:09:26;18.57;;;15.10;;
6537;SDS011;3302;52.508;13.454;2023-04-16T09:11:53;17.77;;;14.00;;
6537;SDS011;3302;52.508;13.454;2023-04-16T09:14:19;16.73;;;14.33;;
6537;SDS011;3302;52.508;13.454;2023-04-16T09:16:46;19.33;;;15.00;;
6537;SDS011;3302;52.508;13.454;2023-04-16T09:19:14;18.53;;;14.87;;
6537;SDS011;3302;52.508;13.454;2023-04-16T09:21:40;18.30;;;14.80;;
6537;SDS011;3302;52.508;13.454;2023-04-16T09:24:07;17.53;;;14.33;;
6537;SDS011;3302;52.508;13.454;2023-04-16T09:26:34;18.13;;;14.80;;
6537;SDS011;3302;52.508;13.454;2023-04-16T09:29:00;16.23;;;13.57;;
6537;SDS011;3302;52.508;13.454;2023-04-16T09:31:26;17.03;;;14.23;;
6537;SDS011;3302;52.508;13.454;2023-04-16T09:34:03;17.73;;;14.07;;
6537;SDS011;3302;52.508;13.454;2023-04-16T09:36:30;14.07;;;12.47;;
6537;SDS011;3302;52.508;13.454;2023-04-16T09:38:57;14.83;;;12.67;;
6537;SDS011;3302;52.508;13.454;2023-04-16T09:41:27;16.93;;;12.73;;
6537;SDS011;3302;52.508;13.454;2023-04-16T09:44:01;16.20;;;13.17;;
6537;SDS011;3302;52.508;13.454;2023-04-16T09:46:33;14.90;;;12.80;;
6537;SDS011;3302;52.508;13.454;2023-04-16T09:49:09;15.83;;;12.57;;
6537;SDS011;3302;52.508;13.454;2023-04-16T09:51:45;15.03;;;13.40;;
6537;SDS011;3302;52.508;13.454;2023-04-16T09:54:12;15.90;;;13.77;;
6537;SDS011;3302;52.508;13.454;2023-04-16T09:56:42;15.13;;;13.00;;
6537;SDS011;3302;52.508;13.454;2023-04-16T09:59:17;14.53;;;13.03;;
6537;SDS011;3302;52.508;13.454;2023-04-16T10:01:44;15.67;;;13.23;;
6537;SDS011;3302;52.508;13.454;2023-04-16T10:04:13;15.87;;;12.97;;
6537;SDS011;3302;52.508;13.454;2023-04-16T10:06:40;14.50;;;12.53;;
6537;SDS011;3302;52.508;13.454;2023-04-16T10:09:06;17.70;;;13.47;;
6537;SDS011;3302;52.508;13.454;2023-04-16T10:11:33;15.57;;;13.77;;
6537;SDS011;3302;52.508;13.454;2023-04-16T10:13:59;14.70;;;13.20;;
6537;SDS011;3302;52.508;13.454;2023-04-16T10:16:25;16.23;;;13.77;;
6537;SDS011;3302;52.508;13.454;2023-04-16T10:18:51;17.07;;;14.00;;
6537;SDS011;3302;52.508;13.454;2023-04-16T10:21:18;16.13;;;14.40;;
6537;SDS011;3302;52.508;13.454;2023-04-16T10:23:45;17.43;;;14.80;;
6537;SDS011;3302;52.508;13.454;2023-04-16T10:26:11;18.20;;;14.77;;
6537;SDS011;3302;52.508;13.454;2023-04-16T10:28:38;19.03;;;15.13;;
6537;SDS011;3302;52.508;13.454;2023-04-16T10:31:06;20.40;;;15.57;;
6537;SDS011;3302;52.508;13.454;2023-04-16T10:33:37;19.53;;;15.63;;
6537;SDS011;3302;52.508;13.454;2023-04-16T10:36:11;18.10;;;15.77;;
6537;SDS011;3302;52.508;13.454;2023-04-16T10:38:58;20.87;;;15.73;;
6537;SDS011;3302;52.508;13.454;2023-04-16T10:41:25;18.23;;;16.03;;
6537;SDS011;3302;52.508;13.454;2023-04-16T10:43:51;20.97;;;16.03;;
6537;SDS011;3302;52.508;13.454;2023-04-16T10:46:18;19.50;;;15.50;;
6537;SDS011;3302;52.508;13.454;2023-04-16T10:48:45;16.80;;;15.03;;
6537;SDS011;3302;52.508;13.454;2023-04-16T10:51:50;17.53;;;15.63;;
6537;SDS011;3302;52.508;13.454;2023-04-16T10:56:36;18.23;;;15.50;;
6537;SDS011;3302;52.508;13.454;2023-04-16T10:59:06;18.20;;;15.30;;
6537;SDS011;3302;52.508;13.454;2023-04-16T11:01:43;18.37;;;15.87;;
6537;SDS011;3302;52.508;13.454;2023-04-16T11:09:49;16.13;;;14.43;;
6537;SDS011;3302;52.508;13.454;2023-04-16T11:15:07;17.03;;;15.20;;
6537;SDS011;3302;52.508;13.454;2023-04-16T11:17:35;16.50;;;14.70;;
6537;SDS011;3302;52.508;13.454;2023-04-16T11:20:02;17.63;;;15.73;;
6537;SDS011;3302;52.508;13.454;2023-04-16T11:22:29;15.93;;;14.23;;
6537;SDS011;3302;52.508;13.454;2023-04-16T11:24:55;15.67;;;14.00;;
6537;SDS011;3302;52.508;13.454;2023-04-16T11:27:24;18.13;;;14.30;;
6537;SDS011;3302;52.508;13.454;2023-04-16T11:29:57;16.10;;;14.40;;
6537;SDS011;3302;52.508;13.454;2023-04-16T11:32:24;15.93;;;14.33;;
6537;SDS011;3302;52.508;13.454;2023-04-16T11:34:50;15.07;;;13.47;;
6537;SDS011;3302;52.508;13.454;2023-04-16T11:37:20;16.83;;;15.03;;
6537;SDS011;3302;52.508;13.454;2023-04-16T11:39:55;15.10;;;13.57;;
6537;SDS011;3302;52.508;13.454;2023-04-16T11:42:21;15.60;;;14.10;;
6537;SDS011;3302;52.508;13.454;2023-04-16T11:44:50;16.37;;;14.67;;
6537;SDS011;3302;52.508;13.454;2023-04-16T11:47:18;14.47;;;13.10;;
6537;SDS011;3302;52.508;13.454;2023-04-16T11:49:44;14.33;;;12.93;;
6537;SDS011;3302;52.508;13.454;2023-04-16T11:52:10;13.60;;;12.20;;
6537;SDS011;3302;52.508;13.454;2023-04-16T11:54:36;13.03;;;11.63;;
6537;SDS011;3302;52.508;13.454;2023-04-16T11:57:02;13.23;;;11.93;;
6537;SDS011;3302;52.508;13.454;2023-04-16T11:59:29;14.03;;;12.63;;
6537;SDS011;3302;52.508;13.454;2023-04-16T12:01:55;14.27;;;12.87;;
6537;SDS011;3302;52.508;13.454;2023-04-16T12:04:21;14.10;;;12.70;;
6537;SDS011;3302;52.508;13.454;2023-04-16T12:09:35;14.83;;;13.43;;
6537;SDS011;3302;52.508;13.454;2023-04-16T12:12:01;14.37;;;12.97;;
6537;SDS011;3302;52.508;13.454;2023-04-16T12:14:28;14.63;;;13.23;;
6537;SDS011;3302;52.508;13.454;2023-04-16T12:16:55;14.67;;;13.27;;
6537;SDS011;3302;52.508;13.454;2023-04-16T12:19:22;14.63;;;13.33;;
6537;SDS011;3302;52.508;13.454;2023-04-16T12:21:48;14.77;;;13.10;;
6537;SDS011;3302;52.508;13.454;2023-04-16T12:24:17;14.00;;;12.67;;
6537;SDS011;3302;52.508;13.454;2023-04-16T12:26:51;13.73;;;12.43;;
6537;SDS011;3302;52.508;13.454;2023-04-16T12:29:27;13.40;;;12.07;;
6537;SDS011;3302;52.508;13.454;2023-04-16T12:31:53;13.23;;;11.93;;
6537;SDS011;3302;52.508;13.454;2023-04-16T12:34:19;12.73;;;11.47;;
6537;SDS011;3302;52.508;13.454;2023-04-16T12:36:46;12.33;;;10.33;;
6537;SDS011;3302;52.508;13.454;2023-04-16T12:39:14;12.33;;;11.13;;
6537;SDS011;3302;52.508;13.454;2023-04-16T12:41:41;11.33;;;10.23;;
6537;SDS011;3302;52.508;13.454;2023-04-16T12:44:08;11.70;;;10.43;;
6537;SDS011;3302;52.508;13.454;2023-04-16T12:46:45;11.80;;;10.60;;
6537;SDS011;3302;52.508;13.454;2023-04-16T12:49:11;14.47;;;10.60;;
6537;SDS011;3302;52.508;13.454;2023-04-16T12:51:37;11.40;;;10.23;;
6537;SDS011;3302;52.508;13.454;2023-04-16T12:54:03;11.93;;;10.73;;
6537;SDS011;3302;52.508;13.454;2023-04-16T12:56:31;10.80;;;9.70;;
6537;SDS011;3302;52.508;13.454;2023-04-16T12:58:58;11.67;;;10.47;;
6537;SDS011;3302;52.508;13.454;2023-04-16T13:01:24;12.40;;;10.53;;
6537;SDS011;3302;52.508;13.454;2023-04-16T13:03:50;9.93;;;9.03;;
6537;SDS011;3302;52.508;13.454;2023-04-16T13:06:16;10.03;;;9.03;;
6537;SDS011;3302;52.508;13.454;2023-04-16T13:08:42;8.23;;;7.43;;
6537;SDS011;3302;52.508;13.454;2023-04-16T13:11:09;8.53;;;7.73;;
6537;SDS011;3302;52.508;13.454;2023-04-16T13:13:35;9.07;;;8.07;;
6537;SDS011;3302;52.508;13.454;2023-04-16T13:16:01;10.20;;;9.10;;
6537;SDS011;3302;52.508;13.454;2023-04-16T13:18:32;10.27;;;8.43;;
6537;SDS011;3302;52.508;13.454;2023-04-16T13:20:59;8.87;;;8.07;;
6537;SDS011;3302;52.508;13.454;2023-04-16T13:23:24;8.30;;;7.50;;
6537;SDS011;3302;52.508;13.454;2023-04-16T13:25:51;9.03;;;8.10;;
6537;SDS011;3302;52.508;13.454;2023-04-16T13:28:17;9.30;;;8.40;;
6537;SDS011;3302;52.508;13.454;2023-04-16T13:30:44;9.03;;;8.13;;
6537;SDS011;3302;52.508;13.454;2023-04-16T13:33:10;8.73;;;7.83;;
6537;SDS011;3302;52.508;13.454;2023-04-16T13:35:36;8.97;;;7.27;;
6537;SDS011;3302;52.508;13.454;2023-04-16T13:38:03;9.77;;;7.67;;
6537;SDS011;3302;52.508;13.454;2023-04-16T13:40:29;8.17;;;7.37;;
6537;SDS011;3302;52.508;13.454;2023-04-16T13:42:54;9.07;;;7.67;;
6537;SDS011;3302;52.508;13.454;2023-04-16T13:45:20;8.33;;;7.53;;
6537;SDS011;3302;52.508;13.454;2023-04-16T13:47:46;8.30;;;7.40;;
6537;SDS011;3302;52.508;13.454;2023-04-16T13:50:12;8.60;;;7.70;;
6537;SDS011;3302;52.508;13.454;2023-04-16T13:52:37;10.50;;;7.60;;
6537;SDS011;3302;52.508;13.454;2023-04-16T13:55:03;9.60;;;8.00;;
6537;SDS011;3302;52.508;13.454;2023-04-16T13:57:29;10.00;;;8.13;;
6537;SDS011;3302;52.508;13.454;2023-04-16T13:59:56;10.50;;;8.97;;
6537;SDS011;3302;52.508;13.454;2023-04-16T14:02:22;9.40;;;8.13;;
6537;SDS011;3302;52.508;13.454;2023-04-16T14:04:48;9.50;;;8.50;;
6537;SDS011;3302;52.508;13.454;2023-04-16T14:07:14;8.80;;;7.90;;
6537;SDS011;3302;52.508;13.454;2023-04-16T14:09:40;9.03;;;7.87;;
6537;SDS011;3302;52.508;13.454;2023-04-16T14:12:06;8.67;;;7.87;;
6537;SDS011;3302;52.508;13.454;2023-04-16T14:14:32;8.70;;;7.80;;
6537;SDS011;3302;52.508;13.454;2023-04-16T14:16:58;9.00;;;8.10;;
6537;SDS011;3302;52.508;13.454;2023-04-16T14:19:24;9.27;;;8.30;;
6537;SDS011;3302;52.508;13.454;2023-04-16T14:21:49;7.97;;;7.27;;
6537;SDS011;3302;52.508;13.454;2023-04-16T14:24:15;9.00;;;8.03;;
6537;SDS011;3302;52.508;13.454;2023-04-16T14:26:44;10.20;;;9.10;;
6537;SDS011;3302;52.508;13.454;2023-04-16T14:29:10;8.57;;;7.73;;
6537;SDS011;3302;52.508;13.454;2023-04-16T14:31:36;8.87;;;7.83;;
6537;SDS011;3302;52.508;13.454;2023-04-16T14:34:01;9.00;;;8.10;;
6537;SDS011;3302;52.508;13.454;2023-04-16T14:36:27;6.83;;;6.17;;
6537;SDS011;3302;52.508;13.454;2023-04-16T14:38:55;7.97;;;7.23;;
6537;SDS011;3302;52.508;13.454;2023-04-16T14:41:21;7.80;;;7.00;;
6537;SDS011;3302;52.508;13.454;2023-04-16T14:43:46;7.30;;;6.60;;
6537;SDS011;3302;52.508;13.454;2023-04-16T14:46:12;9.67;;;7.70;;
6537;SDS011;3302;52.508;13.454;2023-04-16T14:48:42;7.80;;;7.00;;